sensor_id;sensor_type;location;lat;lon;timestamp;pressure;altitude;pressure_sealevel;temperature;humidity
73453;BME280;61687;56.232;43.854;2022-10-04T00:05:15;100699.88;;;9.64;75.46
73453;BME280;61687;56.232;43.854;2022-10-04T00:08:21;100705.38;;;9.64;75.38
73453;BME280;61687;56.232;43.854;2022-10-04T00:11:01;100706.88;;;9.62;75.76
73453;BME280;61687;56.232;43.854;2022-10-04T00:13:28;100695.56;;;9.63;75.17
73453;BME280;61687;56.232;43.854;2022-10-04T00:15:55;100704.91;;;9.62;75.46
73453;BME280;61687;56.232;43.854;2022-10-04T00:18:37;100702.56;;;9.61;75.54
73453;BME280;61687;56.232;43.854;2022-10-04T00:21:07;100699.00;;;9.60;75.54
73453;BME280;61687;56.232;43.854;2022-10-04T00:26:05;100699.00;;;9.60;75.74
73453;BME280;61687;56.232;43.854;2022-10-04T00:31:26;100698.03;;;9.52;75.97
73453;BME280;61687;56.232;43.854;2022-10-04T00:36:51;100694.31;;;9.44;76.26
73453;BME280;61687;56.232;43.854;2022-10-04T00:39:46;100689.97;;;9.43;76.46
73453;BME280;61687;56.232;43.854;2022-10-04T00:50:10;100689.91;;;9.40;76.59
73453;BME280;61687;56.232;43.854;2022-10-04T00:52:42;100691.81;;;9.39;76.62
73453;BME280;61687;56.232;43.854;2022-10-04T00:55:18;100693.78;;;9.39;76.81
73453;BME280;61687;56.232;43.854;2022-10-04T00:57:49;100692.19;;;9.38;76.50
73453;BME280;61687;56.232;43.854;2022-10-04T01:00:19;100693.41;;;9.40;76.59
73453;BME280;61687;56.232;43.854;2022-10-04T01:03:03;100687.59;;;9.42;76.77
73453;BME280;61687;56.232;43.854;2022-10-04T01:05:35;100689.53;;;9.41;76.81
73453;BME280;61687;56.232;43.854;2022-10-04T01:08:09;100689.53;;;9.41;77.02
73453;BME280;61687;56.232;43.854;2022-10-04T01:11:08;100695.38;;;9.40;76.96
73453;BME280;61687;56.232;43.854;2022-10-04T01:13:44;100691.38;;;9.37;77.37
73453;BME280;61687;56.232;43.854;2022-10-04T01:16:23;100692.19;;;9.38;77.24
73453;BME280;61687;56.232;43.854;2022-10-04T01:18:50;100698.81;;;9.37;77.51
73453;BME280;61687;56.232;43.854;2022-10-04T01:24:14;100699.03;;;9.31;78.17
73453;BME280;61687;56.232;43.854;2022-10-04T01:26:41;100701.00;;;9.31;78.21
73453;BME280;61687;56.232;43.854;2022-10-04T01:29:13;100699.84;;;9.32;78.20
73453;BME280;61687;56.232;43.854;2022-10-04T01:31:49;100703.84;;;9.35;78.01
73453;BME280;61687;56.232;43.854;2022-10-04T01:34:18;100709.38;;;9.38;78.38
73453;BME280;61687;56.232;43.854;2022-10-04T01:36:46;100701.78;;;9.31;78.61
73453;BME280;61687;56.232;43.854;2022-10-04T01:39:15;100702.59;;;9.32;78.73
73453;BME280;61687;56.232;43.854;2022-10-04T01:44:30;100711.13;;;9.30;78.87
73453;BME280;61687;56.232;43.854;2022-10-04T01:47:02;100708.75;;;9.29;78.98
73453;BME280;61687;56.232;43.854;2022-10-04T01:49:31;100713.06;;;9.30;79.05
73453;BME280;61687;56.232;43.854;2022-10-04T01:52:09;100715.38;;;9.28;79.18
73453;BME280;61687;56.232;43.854;2022-10-04T01:54:46;100714.22;;;9.29;79.25
73453;BME280;61687;56.232;43.854;2022-10-04T01:57:26;100720.03;;;9.27;79.30
73453;BME280;61687;56.232;43.854;2022-10-04T02:00:07;100712.97;;;9.26;79.51
73453;BME280;61687;56.232;43.854;2022-10-04T02:02:53;100717.66;;;9.26;79.75
73453;BME280;61687;56.232;43.854;2022-10-04T02:05:42;100714.00;;;9.22;79.76
73453;BME280;61687;56.232;43.854;2022-10-04T02:08:12;100704.31;;;9.24;79.95
73453;BME280;61687;56.232;43.854;2022-10-04T02:10:41;100723.78;;;9.23;80.09
73453;BME280;61687;56.232;43.854;2022-10-04T02:13:13;100716.28;;;9.20;80.31
73453;BME280;61687;56.232;43.854;2022-10-04T02:15:40;100725.31;;;9.20;80.40
73453;BME280;61687;56.232;43.854;2022-10-04T02:18:12;100722.13;;;9.18;80.58
73453;BME280;61687;56.232;43.854;2022-10-04T02:20:39;100719.03;;;9.20;80.47
73453;BME280;61687;56.232;43.854;2022-10-04T02:23:07;100723.78;;;9.23;80.26
73453;BME280;61687;56.232;43.854;2022-10-04T02:25:37;100731.22;;;9.22;80.58
73453;BME280;61687;56.232;43.854;2022-10-04T02:28:05;100729.97;;;9.20;80.76
73453;BME280;61687;56.232;43.854;2022-10-04T02:30:40;100726.09;;;9.21;80.72
73453;BME280;61687;56.232;43.854;2022-10-04T02:33:08;100720.63;;;9.21;80.62
73453;BME280;61687;56.232;43.854;2022-10-04T02:35:37;100728.81;;;9.21;81.00
73453;BME280;61687;56.232;43.854;2022-10-04T02:40:52;100729.97;;;9.20;81.12
73453;BME280;61687;56.232;43.854;2022-10-04T02:46:26;100731.13;;;9.19;81.31
73453;BME280;61687;56.232;43.854;2022-10-04T02:48:59;100729.44;;;9.14;81.28
73453;BME280;61687;56.232;43.854;2022-10-04T02:54:24;100732.84;;;9.11;81.52
73453;BME280;61687;56.232;43.854;2022-10-04T02:56:53;100740.97;;;9.07;81.41
73453;BME280;61687;56.232;43.854;2022-10-04T02:59:20;100743.25;;;9.05;81.93
73453;BME280;61687;56.232;43.854;2022-10-04T03:01:56;100756.56;;;9.07;81.86
73453;BME280;61687;56.232;43.854;2022-10-04T03:04:29;100759.28;;;9.07;81.86
73453;BME280;61687;56.232;43.854;2022-10-04T03:06:59;100766.72;;;9.06;81.95
73453;BME280;61687;56.232;43.854;2022-10-04T03:09:27;100758.50;;;9.06;81.98
73453;BME280;61687;56.232;43.854;2022-10-04T03:11:53;100766.72;;;9.06;82.07
73453;BME280;61687;56.232;43.854;2022-10-04T03:14:23;100774.56;;;9.08;82.42
73453;BME280;61687;56.232;43.854;2022-10-04T03:16:52;100768.63;;;9.06;82.25
73453;BME280;61687;56.232;43.854;2022-10-04T03:19:24;100769.78;;;9.05;82.39
73453;BME280;61687;56.232;43.854;2022-10-04T03:21:55;100769.53;;;9.10;82.23
73453;BME280;61687;56.232;43.854;2022-10-04T03:24:35;100781.28;;;9.10;82.64
73453;BME280;61687;56.232;43.854;2022-10-04T03:27:05;100786.38;;;9.12;82.42
73453;BME280;61687;56.232;43.854;2022-10-04T03:29:33;100779.00;;;9.12;82.36
73453;BME280;61687;56.232;43.854;2022-10-04T03:32:02;100777.06;;;9.13;82.37
73453;BME280;61687;56.232;43.854;2022-10-04T03:34:40;100778.28;;;9.15;82.43
73453;BME280;61687;56.232;43.854;2022-10-04T03:37:14;100777.59;;;9.19;82.31
73453;BME280;61687;56.232;43.854;2022-10-04T03:39:46;100785.47;;;9.20;82.31
73453;BME280;61687;56.232;43.854;2022-10-04T03:42:16;100779.63;;;9.22;82.20
73453;BME280;61687;56.232;43.854;2022-10-04T03:44:44;100794.31;;;9.29;82.23
73453;BME280;61687;56.232;43.854;2022-10-04T03:47:16;100800.69;;;9.34;82.02
73453;BME280;61687;56.232;43.854;2022-10-04T03:49:45;100806.25;;;9.37;81.86
73453;BME280;61687;56.232;43.854;2022-10-04T03:52:22;100812.63;;;9.41;81.79
73453;BME280;61687;56.232;43.854;2022-10-04T03:54:51;100807.59;;;9.43;81.72
73453;BME280;61687;56.232;43.854;2022-10-04T03:57:18;100819.03;;;9.45;81.50
73453;BME280;61687;56.232;43.854;2022-10-04T03:59:44;100812.03;;;9.48;81.54
73453;BME280;61687;56.232;43.854;2022-10-04T04:05:19;100822.84;;;9.57;81.59
73453;BME280;61687;56.232;43.854;2022-10-04T04:08:05;100828.75;;;9.59;81.20
73453;BME280;61687;56.232;43.854;2022-10-04T04:10:38;100836.38;;;9.66;81.31
73453;BME280;61687;56.232;43.854;2022-10-04T04:15:37;100842.16;;;9.77;81.33
73453;BME280;61687;56.232;43.854;2022-10-04T04:18:21;100841.19;;;9.85;80.95
73453;BME280;61687;56.232;43.854;2022-10-04T04:20:50;100843.00;;;9.93;80.76
73453;BME280;61687;56.232;43.854;2022-10-04T04:23:23;100848.66;;;10.00;80.88
73453;BME280;61687;56.232;43.854;2022-10-04T04:25:54;100840.19;;;10.06;80.70
73453;BME280;61687;56.232;43.854;2022-10-04T04:28:31;100842.75;;;10.14;80.70
73453;BME280;61687;56.232;43.854;2022-10-04T04:34:00;100832.44;;;10.24;80.22
73453;BME280;61687;56.232;43.854;2022-10-04T04:36:29;100830.16;;;10.26;79.93
73453;BME280;61687;56.232;43.854;2022-10-04T04:42:17;100839.41;;;10.37;79.79
73453;BME280;61687;56.232;43.854;2022-10-04T04:44:52;100836.09;;;10.44;79.65
73453;BME280;61687;56.232;43.854;2022-10-04T04:49:56;100837.50;;;10.54;79.67
73453;BME280;61687;56.232;43.854;2022-10-04T04:52:26;100832.75;;;10.51;79.62
73453;BME280;61687;56.232;43.854;2022-10-04T04:54:54;100831.94;;;10.50;79.73
73453;BME280;61687;56.232;43.854;2022-10-04T04:57:21;100832.75;;;10.51;79.69
73453;BME280;61687;56.232;43.854;2022-10-04T04:59:52;100841.06;;;10.54;79.76
73453;BME280;61687;56.232;43.854;2022-10-04T05:02:30;100841.56;;;10.60;79.67
73453;BME280;61687;56.232;43.854;2022-10-04T05:05:33;100833.09;;;10.65;79.40
73453;BME280;61687;56.232;43.854;2022-10-04T05:08:12;100839.91;;;10.71;79.27
73453;BME280;61687;56.232;43.854;2022-10-04T05:10:51;100832.97;;;10.78;79.06
73453;BME280;61687;56.232;43.854;2022-10-04T05:13:34;100839.44;;;10.85;79.16
73453;BME280;61687;56.232;43.854;2022-10-04T05:16:12;100837.56;;;10.90;79.02
73453;BME280;61687;56.232;43.854;2022-10-04T05:18:39;100830.69;;;10.96;78.97
73453;BME280;61687;56.232;43.854;2022-10-04T05:21:21;100838.63;;;11.01;79.03
73453;BME280;61687;56.232;43.854;2022-10-04T05:23:47;100839.06;;;11.03;79.06
73453;BME280;61687;56.232;43.854;2022-10-04T05:26:24;100846.66;;;11.10;78.90
73453;BME280;61687;56.232;43.854;2022-10-04T05:28:51;100841.69;;;11.15;78.78
73453;BME280;61687;56.232;43.854;2022-10-04T05:31:46;100847.41;;;11.26;78.55
73453;BME280;61687;56.232;43.854;2022-10-04T05:34:27;100836.19;;;11.35;78.31
73453;BME280;61687;56.232;43.854;2022-10-04T05:42:20;100846.94;;;11.60;77.65
73453;BME280;61687;56.232;43.854;2022-10-04T05:44:56;100844.81;;;11.73;77.29
73453;BME280;61687;56.232;43.854;2022-10-04T05:47:27;100843.44;;;11.83;76.96
73453;BME280;61687;56.232;43.854;2022-10-04T05:49:58;100850.66;;;11.91;76.64
73453;BME280;61687;56.232;43.854;2022-10-04T05:52:38;100856.28;;;11.98;76.38
73453;BME280;61687;56.232;43.854;2022-10-04T06:00:20;100862.44;;;12.11;76.22
73453;BME280;61687;56.232;43.854;2022-10-04T06:22:18;100856.50;;;12.79;74.10
73453;BME280;61687;56.232;43.854;2022-10-04T06:24:59;100850.75;;;12.88;74.19
73453;BME280;61687;56.232;43.854;2022-10-04T06:30:12;100856.53;;;13.06;72.90
73453;BME280;61687;56.232;43.854;2022-10-04T06:32:52;100864.50;;;13.15;72.78
73453;BME280;61687;56.232;43.854;2022-10-04T06:35:38;100865.81;;;13.25;72.13
73453;BME280;61687;56.232;43.854;2022-10-04T06:41:06;100864.69;;;13.29;71.70
73453;BME280;61687;56.232;43.854;2022-10-04T06:44:32;100861.25;;;13.36;71.91
73453;BME280;61687;56.232;43.854;2022-10-04T06:47:07;100864.13;;;13.43;72.05
73453;BME280;61687;56.232;43.854;2022-10-04T06:56:17;100869.28;;;13.79;70.66
73453;BME280;61687;56.232;43.854;2022-10-04T07:01:57;100873.47;;;14.03;69.93
73453;BME280;61687;56.232;43.854;2022-10-04T07:04:34;100880.75;;;14.19;69.05
73453;BME280;61687;56.232;43.854;2022-10-04T07:10:25;100871.13;;;14.43;68.55
73453;BME280;61687;56.232;43.854;2022-10-04T07:13:04;100874.81;;;14.58;68.39
73453;BME280;61687;56.232;43.854;2022-10-04T07:15:40;100872.09;;;14.66;67.72
73453;BME280;61687;56.232;43.854;2022-10-04T07:18:12;100873.75;;;14.74;68.25
73453;BME280;61687;56.232;43.854;2022-10-04T07:20:40;100877.34;;;14.78;67.68
73453;BME280;61687;56.232;43.854;2022-10-04T07:23:23;100864.88;;;14.99;66.29
73453;BME280;61687;56.232;43.854;2022-10-04T07:25:55;100862.25;;;15.24;66.03
73453;BME280;61687;56.232;43.854;2022-10-04T07:28:28;100863.88;;;15.36;65.14
73453;BME280;61687;56.232;43.854;2022-10-04T07:31:21;100874.25;;;15.50;64.54
73453;BME280;61687;56.232;43.854;2022-10-04T07:33:53;100868.31;;;15.52;64.10
73453;BME280;61687;56.232;43.854;2022-10-04T07:36:51;100868.72;;;15.54;64.03
73453;BME280;61687;56.232;43.854;2022-10-04T07:39:18;100860.50;;;15.68;64.38
73453;BME280;61687;56.232;43.854;2022-10-04T07:41:54;100868.81;;;15.72;64.10
73453;BME280;61687;56.232;43.854;2022-10-04T07:44:38;100867.63;;;15.80;64.35
73453;BME280;61687;56.232;43.854;2022-10-04T07:49:40;100870.78;;;15.79;63.38
73453;BME280;61687;56.232;43.854;2022-10-04T07:52:35;100870.41;;;15.80;63.71
73453;BME280;61687;56.232;43.854;2022-10-04T08:00:38;100869.25;;;15.85;63.89
73453;BME280;61687;56.232;43.854;2022-10-04T08:09:22;100869.25;;;15.88;63.28
73453;BME280;61687;56.232;43.854;2022-10-04T08:12:52;100877.97;;;16.01;62.86
73453;BME280;61687;56.232;43.854;2022-10-04T08:14:53;100879.59;;;16.02;62.41
73453;BME280;61687;56.232;43.854;2022-10-04T08:58:01;100876.88;;;16.50;62.03
73453;BME280;61687;56.232;43.854;2022-10-04T09:09:11;100875.69;;;16.87;60.69
73453;BME280;61687;56.232;43.854;2022-10-04T09:23:07;100872.13;;;17.05;60.37
73453;BME280;61687;56.232;43.854;2022-10-04T09:47:26;100859.22;;;17.76;57.65
73453;BME280;61687;56.232;43.854;2022-10-04T09:53:41;100860.97;;;17.41;58.02
73453;BME280;61687;56.232;43.854;2022-10-04T09:56:28;100855.50;;;17.15;58.91
73453;BME280;61687;56.232;43.854;2022-10-04T10:37:06;100843.06;;;17.56;57.60
73453;BME280;61687;56.232;43.854;2022-10-04T10:46:08;100836.53;;;17.92;57.38
73453;BME280;61687;56.232;43.854;2022-10-04T10:53:58;100844.81;;;18.07;55.14
73453;BME280;61687;56.232;43.854;2022-10-04T10:56:45;100837.72;;;17.98;55.96
73453;BME280;61687;56.232;43.854;2022-10-04T11:07:47;100852.69;;;17.26;56.68
73453;BME280;61687;56.232;43.854;2022-10-04T11:19:38;100854.72;;;16.93;57.79
73453;BME280;61687;56.232;43.854;2022-10-04T11:39:30;100849.19;;;16.86;58.29
73453;BME280;61687;56.232;43.854;2022-10-04T11:48:01;100847.22;;;16.79;58.82
73453;BME280;61687;56.232;43.854;2022-10-04T11:50:44;100839.31;;;16.78;58.98
73453;BME280;61687;56.232;43.854;2022-10-04T11:58:58;100831.41;;;16.76;59.20
73453;BME280;61687;56.232;43.854;2022-10-04T12:10:22;100815.59;;;16.73;60.09
73453;BME280;61687;56.232;43.854;2022-10-04T12:15:52;100824.69;;;16.77;60.06
73453;BME280;61687;56.232;43.854;2022-10-04T12:24:01;100826.78;;;17.69;56.92
73453;BME280;61687;56.232;43.854;2022-10-04T12:35:45;100811.38;;;17.65;57.10
73453;BME280;61687;56.232;43.854;2022-10-04T12:44:04;100818.22;;;18.13;56.32
73453;BME280;61687;56.232;43.854;2022-10-04T12:49:20;100805.63;;;17.97;57.04
73453;BME280;61687;56.232;43.854;2022-10-04T12:52:18;100803.41;;;17.70;56.90
73453;BME280;61687;56.232;43.854;2022-10-04T12:54:52;100800.72;;;17.52;57.62
73453;BME280;61687;56.232;43.854;2022-10-04T13:03:02;100799.53;;;17.50;57.73
73453;BME280;61687;56.232;43.854;2022-10-04T13:16:41;100809.59;;;17.11;59.10
73453;BME280;61687;56.232;43.854;2022-10-04T13:25:09;100803.78;;;16.47;61.22
73453;BME280;61687;56.232;43.854;2022-10-04T13:27:51;100795.06;;;16.30;61.38
73453;BME280;61687;56.232;43.854;2022-10-04T13:30:24;100795.84;;;16.20;62.00
73453;BME280;61687;56.232;43.854;2022-10-04T13:32:59;100797.44;;;16.14;62.09
73453;BME280;61687;56.232;43.854;2022-10-04T13:41:13;100800.56;;;15.91;62.99
73453;BME280;61687;56.232;43.854;2022-10-04T13:46:36;100803.66;;;15.67;63.70
73453;BME280;61687;56.232;43.854;2022-10-04T13:57:55;100808.13;;;15.05;65.73
73453;BME280;61687;56.232;43.854;2022-10-04T14:24:09;100808.97;;;14.57;68.36
73453;BME280;61687;56.232;43.854;2022-10-04T14:31:59;100816.41;;;14.49;68.83
73453;BME280;61687;56.232;43.854;2022-10-04T14:54:52;100816.72;;;14.37;69.45
73453;BME280;61687;56.232;43.854;2022-10-04T15:10:57;100820.13;;;14.23;70.52
73453;BME280;61687;56.232;43.854;2022-10-04T15:13:45;100822.44;;;14.21;70.52
73453;BME280;61687;56.232;43.854;2022-10-04T15:41:05;100816.97;;;13.83;71.96
73453;BME280;61687;56.232;43.854;2022-10-04T15:43:47;100823.66;;;13.82;71.93
73453;BME280;61687;56.232;43.854;2022-10-04T15:49:15;100836.22;;;13.79;72.35
73453;BME280;61687;56.232;43.854;2022-10-04T16:00:06;100841.59;;;13.68;72.45
73453;BME280;61687;56.232;43.854;2022-10-04T16:13:44;100847.28;;;13.49;72.36
73453;BME280;61687;56.232;43.854;2022-10-04T16:19:24;100835.72;;;13.39;72.46
73453;BME280;61687;56.232;43.854;2022-10-04T16:22:10;100833.78;;;13.40;72.26
73453;BME280;61687;56.232;43.854;2022-10-04T16:24:43;100842.41;;;13.38;71.84
73453;BME280;61687;56.232;43.854;2022-10-04T16:27:25;100842.34;;;13.35;72.17
73453;BME280;61687;56.232;43.854;2022-10-04T16:33:28;100843.84;;;13.28;71.80
73453;BME280;61687;56.232;43.854;2022-10-04T16:36:13;100845.81;;;13.28;71.93
73453;BME280;61687;56.232;43.854;2022-10-04T16:38:46;100849.75;;;13.27;71.68
73453;BME280;61687;56.232;43.854;2022-10-04T16:45:23;100854.72;;;13.17;71.85
73453;BME280;61687;56.232;43.854;2022-10-04T16:55:53;100852.06;;;12.98;72.19
73453;BME280;61687;56.232;43.854;2022-10-04T17:12:45;100832.56;;;12.80;72.94
73453;BME280;61687;56.232;43.854;2022-10-04T17:26:13;100848.03;;;12.65;73.12
73453;BME280;61687;56.232;43.854;2022-10-04T17:29:25;100847.16;;;12.60;73.03
73453;BME280;61687;56.232;43.854;2022-10-04T17:36:54;100843.03;;;12.47;73.89
73453;BME280;61687;56.232;43.854;2022-10-04T17:39:33;100846.97;;;12.46;73.45
73453;BME280;61687;56.232;43.854;2022-10-04T17:54:01;100846.47;;;12.64;73.23
73453;BME280;61687;56.232;43.854;2022-10-04T17:56:50;100847.25;;;12.64;73.21
73453;BME280;61687;56.232;43.854;2022-10-04T17:59:25;100847.66;;;12.66;72.97
73453;BME280;61687;56.232;43.854;2022-10-04T18:02:16;100848.88;;;12.69;72.77
73453;BME280;61687;56.232;43.854;2022-10-04T18:04:49;100837.88;;;12.69;72.79
73453;BME280;61687;56.232;43.854;2022-10-04T18:07:20;100843.75;;;12.67;72.70
73453;BME280;61687;56.232;43.854;2022-10-04T18:09:53;100843.75;;;12.67;72.94
73453;BME280;61687;56.232;43.854;2022-10-04T18:12:37;100836.66;;;12.66;73.04
73453;BME280;61687;56.232;43.854;2022-10-04T18:15:56;100837.47;;;12.67;73.09
73453;BME280;61687;56.232;43.854;2022-10-04T18:18:18;100838.56;;;12.62;73.21
73453;BME280;61687;56.232;43.854;2022-10-04T18:23:23;100832.72;;;12.64;73.14
73453;BME280;61687;56.232;43.854;2022-10-04T18:25:53;100828.72;;;12.61;73.11
73453;BME280;61687;56.232;43.854;2022-10-04T18:28:22;100822.84;;;12.63;73.07
73453;BME280;61687;56.232;43.854;2022-10-04T18:33:22;100833.13;;;12.66;73.04
73453;BME280;61687;56.232;43.854;2022-10-04T18:35:51;100833.13;;;12.66;72.72
73453;BME280;61687;56.232;43.854;2022-10-04T18:38:22;100825.59;;;12.63;72.58
73453;BME280;61687;56.232;43.854;2022-10-04T18:41:20;100829.50;;;12.62;72.68
73453;BME280;61687;56.232;43.854;2022-10-04T18:46:24;100821.66;;;12.60;72.65
73453;BME280;61687;56.232;43.854;2022-10-04T18:49:15;100819.25;;;12.58;72.50
73453;BME280;61687;56.232;43.854;2022-10-04T18:57:39;100810.16;;;12.54;72.49
73453;BME280;61687;56.232;43.854;2022-10-04T19:00:38;100818.06;;;12.56;72.51
73453;BME280;61687;56.232;43.854;2022-10-04T19:06:24;100801.50;;;12.52;72.56
73453;BME280;61687;56.232;43.854;2022-10-04T19:09:10;100804.97;;;12.49;72.56
73453;BME280;61687;56.232;43.854;2022-10-04T19:12:04;100810.06;;;12.47;72.59
73453;BME280;61687;56.232;43.854;2022-10-04T19:17:24;100824.66;;;12.51;72.59
73453;BME280;61687;56.232;43.854;2022-10-04T19:22:59;100809.38;;;12.54;72.54
73453;BME280;61687;56.232;43.854;2022-10-04T19:25:46;100812.50;;;12.52;72.45
73453;BME280;61687;56.232;43.854;2022-10-04T19:28:29;100805.41;;;12.51;72.37
73453;BME280;61687;56.232;43.854;2022-10-04T19:31:20;100805.75;;;12.50;72.10
73453;BME280;61687;56.232;43.854;2022-10-04T19:33:53;100803.81;;;12.50;72.29
73453;BME280;61687;56.232;43.854;2022-10-04T19:36:39;100788.06;;;12.47;72.54
73453;BME280;61687;56.232;43.854;2022-10-04T19:42:17;100777.38;;;12.42;72.52
73453;BME280;61687;56.232;43.854;2022-10-04T19:44:53;100758.50;;;12.40;72.90
73453;BME280;61687;56.232;43.854;2022-10-04T19:47:46;100762.66;;;12.30;73.17
73453;BME280;61687;56.232;43.854;2022-10-04T19:52:58;100768.78;;;12.20;73.35
73453;BME280;61687;56.232;43.854;2022-10-04T19:55:48;100776.16;;;12.16;73.47
73453;BME280;61687;56.232;43.854;2022-10-04T19:58:40;100778.00;;;12.08;73.61
73453;BME280;61687;56.232;43.854;2022-10-04T20:01:13;100780.03;;;12.11;73.19
73453;BME280;61687;56.232;43.854;2022-10-04T20:03:40;100763.56;;;12.11;72.99
73453;BME280;61687;56.232;43.854;2022-10-04T20:06:08;100769.47;;;12.13;72.90
73453;BME280;61687;56.232;43.854;2022-10-04T20:08:49;100778.06;;;12.12;72.88
73453;BME280;61687;56.232;43.854;2022-10-04T20:11:27;100765.41;;;12.07;72.75
73453;BME280;61687;56.232;43.854;2022-10-04T20:19:39;100773.31;;;12.09;72.81
73453;BME280;61687;56.232;43.854;2022-10-04T20:34:56;100769.41;;;12.10;72.86
73453;BME280;61687;56.232;43.854;2022-10-04T20:45:48;100759.25;;;12.14;72.57
73453;BME280;61687;56.232;43.854;2022-10-04T20:48:21;100775.31;;;12.12;72.68
73453;BME280;61687;56.232;43.854;2022-10-04T20:50:48;100785.94;;;12.13;72.58
73453;BME280;61687;56.232;43.854;2022-10-04T20:53:22;100783.88;;;12.07;72.45
73453;BME280;61687;56.232;43.854;2022-10-04T20:55:50;100776.41;;;12.07;72.27
73453;BME280;61687;56.232;43.854;2022-10-04T20:58:27;100771.28;;;12.06;72.17
73453;BME280;61687;56.232;43.854;2022-10-04T21:00:58;100764.63;;;12.07;72.21
73453;BME280;61687;56.232;43.854;2022-10-04T21:03:24;100762.25;;;12.05;72.30
73453;BME280;61687;56.232;43.854;2022-10-04T21:06:03;100749.75;;;12.08;72.30
73453;BME280;61687;56.232;43.854;2022-10-04T21:08:30;100751.31;;;12.09;72.30
73453;BME280;61687;56.232;43.854;2022-10-04T21:11:17;100750.16;;;12.10;72.30
73453;BME280;61687;56.232;43.854;2022-10-04T21:16:33;100750.59;;;12.12;72.08
73453;BME280;61687;56.232;43.854;2022-10-04T21:27:35;100741.13;;;12.09;72.19
73453;BME280;61687;56.232;43.854;2022-10-04T21:30:11;100734.84;;;12.09;72.13
73453;BME280;61687;56.232;43.854;2022-10-04T21:32:38;100729.00;;;12.10;72.08
73453;BME280;61687;56.232;43.854;2022-10-04T21:35:06;100728.69;;;12.15;72.48
73453;BME280;61687;56.232;43.854;2022-10-04T21:37:32;100721.47;;;12.07;72.72
73453;BME280;61687;56.232;43.854;2022-10-04T21:39:59;100726.59;;;12.09;72.36
73453;BME280;61687;56.232;43.854;2022-10-04T21:42:25;100736.06;;;12.11;72.56
73453;BME280;61687;56.232;43.854;2022-10-04T21:44:51;100734.91;;;12.12;72.41
73453;BME280;61687;56.232;43.854;2022-10-04T21:47:17;100737.28;;;12.14;72.28
73453;BME280;61687;56.232;43.854;2022-10-04T21:49:45;100732.16;;;12.12;72.59
73453;BME280;61687;56.232;43.854;2022-10-04T21:52:11;100735.63;;;12.09;72.47
73453;BME280;61687;56.232;43.854;2022-10-04T21:54:37;100724.28;;;12.11;72.62
73453;BME280;61687;56.232;43.854;2022-10-04T21:57:03;100718.84;;;12.14;72.33
73453;BME280;61687;56.232;43.854;2022-10-04T21:59:28;100720.00;;;12.13;72.45
73453;BME280;61687;56.232;43.854;2022-10-04T22:01:54;100719.28;;;12.16;72.49
73453;BME280;61687;56.232;43.854;2022-10-04T22:04:20;100725.19;;;12.19;72.68
73453;BME280;61687;56.232;43.854;2022-10-04T22:06:46;100724.03;;;12.20;72.15
73453;BME280;61687;56.232;43.854;2022-10-04T22:09:12;100718.47;;;12.16;72.68
73453;BME280;61687;56.232;43.854;2022-10-04T22:11:38;100719.28;;;12.16;72.69
73453;BME280;61687;56.232;43.854;2022-10-04T22:14:04;100707.47;;;12.16;72.73
73453;BME280;61687;56.232;43.854;2022-10-04T22:16:30;100708.63;;;12.15;73.07
73453;BME280;61687;56.232;43.854;2022-10-04T22:18:56;100709.38;;;12.12;72.85
73453;BME280;61687;56.232;43.854;2022-10-04T22:21:22;100706.63;;;12.12;72.68
73453;BME280;61687;56.232;43.854;2022-10-04T22:23:48;100713.72;;;12.13;72.62
73453;BME280;61687;56.232;43.854;2022-10-04T22:26:16;100703.94;;;12.15;72.58
73453;BME280;61687;56.232;43.854;2022-10-04T22:28:50;100696.50;;;12.16;72.12
73453;BME280;61687;56.232;43.854;2022-10-04T22:31:23;100694.91;;;12.15;72.11
73453;BME280;61687;56.232;43.854;2022-10-04T22:33:50;100712.56;;;12.14;72.15
73453;BME280;61687;56.232;43.854;2022-10-04T22:36:34;100709.81;;;12.14;72.26
73453;BME280;61687;56.232;43.854;2022-10-04T22:41:32;100701.22;;;12.15;71.70
73453;BME280;61687;56.232;43.854;2022-10-04T22:44:05;100694.81;;;12.08;72.41
73453;BME280;61687;56.232;43.854;2022-10-04T22:46:36;100692.06;;;12.08;72.31
73453;BME280;61687;56.232;43.854;2022-10-04T22:49:08;100696.38;;;12.09;72.41
73453;BME280;61687;56.232;43.854;2022-10-04T22:51:35;100693.28;;;12.10;72.17
73453;BME280;61687;56.232;43.854;2022-10-04T22:54:07;100690.09;;;12.08;72.18
73453;BME280;61687;56.232;43.854;2022-10-04T22:56:34;100679.91;;;12.09;72.29
73453;BME280;61687;56.232;43.854;2022-10-04T22:59:00;100669.75;;;12.13;72.24
73453;BME280;61687;56.232;43.854;2022-10-04T23:01:26;100674.91;;;12.14;72.25
73453;BME280;61687;56.232;43.854;2022-10-04T23:03:54;100663.41;;;12.09;72.27
73453;BME280;61687;56.232;43.854;2022-10-04T23:06:21;100668.09;;;12.08;72.17
73453;BME280;61687;56.232;43.854;2022-10-04T23:08:47;100659.09;;;12.08;72.36
73453;BME280;61687;56.232;43.854;2022-10-04T23:11:14;100667.25;;;12.04;72.65
73453;BME280;61687;56.232;43.854;2022-10-04T23:13:39;100662.56;;;12.05;72.64
73453;BME280;61687;56.232;43.854;2022-10-04T23:16:18;100655.13;;;12.05;72.52
73453;BME280;61687;56.232;43.854;2022-10-04T23:18:45;100652.38;;;12.05;72.88
73453;BME280;61687;56.232;43.854;2022-10-04T23:21:23;100656.34;;;12.08;72.90
73453;BME280;61687;56.232;43.854;2022-10-04T23:23:50;100653.19;;;12.06;72.74
73453;BME280;61687;56.232;43.854;2022-10-04T23:26:33;100655.53;;;12.07;72.72
73453;BME280;61687;56.232;43.854;2022-10-04T23:29:05;100650.78;;;12.04;72.96